Time;durP1;ratioP1;P1;durP2;ratioP2;P2;SDS_P1;SDS_P2;PMS_P1;PMS_P2;Temp;Humidity;BMP_temperature;BMP_pressure;BME280_temperature;BME280_humidity;BME280_pressure;Samples;Min_cycle;Max_cycle;Signal;HPM_P1;HPM_P2
2021/08/09 00:01:51;;;;;;;141.18;62.63;;;;;;;20.19;77.59;99842.97;4972947;28;20292;-91
2021/08/09 00:04:17;;;;;;;142.43;63.00;;;;;;;19.99;77.32;99806.09;4985186;28;20040;-94
2021/08/09 00:06:44;;;;;;;133.63;63.15;;;;;;;20.13;77.54;99836.94;5024182;28;20311;-91
2021/08/09 00:09:09;;;;;;;130.40;60.63;;;;;;;19.94;76.93;99809.97;4970144;28;20074;-95
2021/08/09 00:11:38;;;;;;;132.38;61.58;;;;;;;19.97;77.09;99813.16;4992687;28;20054;-90
2021/08/09 00:14:04;;;;;;;132.88;59.90;;;;;;;19.83;76.84;99811.69;4990196;28;20030;-93
2021/08/09 00:16:33;;;;;;;139.43;61.30;;;;;;;19.51;76.90;99761.06;4993723;28;20092;-91
2021/08/09 00:18:59;;;;;;;127.93;60.67;;;;;;;19.70;76.98;99801.88;5005585;28;20037;-91
2021/08/09 00:21:37;;;;;;;131.90;62.58;;;;;;;19.89;77.25;99829.66;5001930;28;20096;-94
2021/08/09 00:24:04;;;;;;;118.75;59.58;;;;;;;19.87;77.18;99836.78;5000467;28;20149;-91
2021/08/09 00:26:30;;;;;;;119.15;59.85;;;;;;;19.75;76.18;99820.25;5001811;28;20049;-93
2021/08/09 00:29:00;;;;;;;116.03;58.10;;;;;;;19.80;76.20;99833.81;5002900;28;20045;-90
2021/08/09 00:31:27;;;;;;;125.10;59.80;;;;;;;19.62;76.93;99812.00;4984927;28;20136;-94
2021/08/09 00:33:54;;;;;;;118.65;57.85;;;;;;;19.66;77.23;99823.19;4985816;28;20041;-90
2021/08/09 00:36:21;;;;;;;116.93;57.97;;;;;;;19.61;77.17;99818.72;5018134;28;20049;-92
2021/08/09 00:38:48;;;;;;;125.45;60.47;;;;;;;19.69;77.52;99836.34;5001063;28;20072;-90
2021/08/09 00:41:15;;;;;;;115.88;57.50;;;;;;;19.66;77.52;99824.00;4987391;28;20091;-91
2021/08/09 00:43:42;;;;;;;110.20;54.72;;;;;;;19.68;77.49;99837.53;4997732;28;20053;-93
2021/08/09 00:46:14;;;;;;;103.45;55.65;;;;;;;19.48;77.64;99815.25;4997483;28;20048;-90
2021/08/09 00:48:50;;;;;;;112.28;54.58;;;;;;;19.38;76.83;99796.41;4997780;28;20053;-94
2021/08/09 00:51:17;;;;;;;103.85;53.05;;;;;;;19.37;76.18;99799.53;4998531;28;20072;-91
2021/08/09 00:53:48;;;;;;;108.95;54.28;;;;;;;19.30;76.45;99797.38;4984414;28;20049;-93
2021/08/09 00:56:14;;;;;;;;;;;;;;;19.45;76.38;99827.06;4998624;28;20037;-93
2021/08/09 00:58:42;;;;;;;101.50;52.55;;;;;;;19.05;76.53;99765.50;4998056;28;19925;-92
2021/08/09 01:01:09;;;;;;;103.85;52.53;;;;;;;19.14;76.90;99783.56;5001153;28;20041;-90
2021/08/09 01:03:35;;;;;;;110.77;53.57;;;;;;;19.22;77.56;99806.72;5001090;28;20048;-93
2021/08/09 01:06:06;;;;;;;100.47;51.83;;;;;;;19.33;77.17;99818.03;4981099;28;20038;-92
2021/08/09 01:08:38;;;;;;;108.07;53.03;;;;;;;19.36;77.06;99820.09;5015608;28;20557;-91
2021/08/09 01:11:18;;;;;;;127.65;54.35;;;;;;;19.20;77.09;99803.47;4998539;28;20447;-94
2021/08/09 01:14:22;;;;;;;107.85;52.70;;;;;;;19.28;77.25;99823.88;5023338;28;20046;-92
2021/08/09 01:16:59;;;;;;;112.43;53.13;;;;;;;19.08;77.99;99793.31;4995935;28;20461;-91
2021/08/09 01:19:58;;;;;;;109.45;56.15;;;;;;;19.23;78.78;99833.25;4985065;28;20045;-91
2021/08/09 01:22:51;;;;;;;124.80;59.42;;;;;;;19.21;78.60;99819.75;4972034;28;20497;-91
2021/08/09 01:25:23;;;;;;;116.43;57.55;;;;;;;19.20;78.49;99817.34;5017481;28;20069;-94
2021/08/09 01:27:55;;;;;;;207.45;73.88;;;;;;;19.23;79.80;99813.84;5008350;28;20048;-91
2021/08/09 01:30:21;;;;;;;182.52;72.95;;;;;;;19.28;80.03;99821.91;5032652;28;20041;-91
2021/08/09 01:32:51;;;;;;;144.50;64.35;;;;;;;19.01;78.74;99773.75;5006798;28;20033;-91
2021/08/09 01:35:21;;;;;;;161.20;67.43;;;;;;;19.12;78.95;99794.19;4983644;28;20395;-90
2021/08/09 01:37:52;;;;;;;139.10;64.25;;;;;;;19.13;78.32;99804.09;4999667;28;20124;-94
2021/08/09 01:40:23;;;;;;;143.88;62.55;;;;;;;19.25;78.06;99817.06;4989569;28;20048;-92
2021/08/09 01:42:50;;;;;;;151.75;62.17;;;;;;;18.98;78.07;99774.47;4987818;28;20037;-91
2021/08/09 01:45:20;;;;;;;127.93;62.13;;;;;;;19.18;78.17;99811.38;5016672;28;20044;-93
2021/08/09 01:47:47;;;;;;;128.02;59.35;;;;;;;19.21;77.74;99825.31;5016302;28;20064;-90
2021/08/09 01:50:16;;;;;;;134.35;58.70;;;;;;;19.19;77.56;99821.28;5004326;28;20037;-93
2021/08/09 01:52:43;;;;;;;142.75;59.97;;;;;;;18.92;77.93;99789.75;5005822;28;20499;-92
2021/08/09 01:55:14;;;;;;;118.95;58.17;;;;;;;19.07;77.54;99810.28;4981051;28;20042;-94
2021/08/09 01:57:46;;;;;;;107.38;53.40;;;;;;;19.12;76.77;99830.22;5000074;28;20041;-91
2021/08/09 02:00:16;;;;;;;103.22;54.35;;;;;;;19.08;76.73;99834.06;4984308;28;20037;-92
2021/08/09 02:02:43;;;;;;;124.72;56.95;;;;;;;18.86;77.43;99797.50;5033227;28;20046;-93
2021/08/09 02:05:14;;;;;;;123.63;56.83;;;;;;;19.10;77.99;99834.50;5017122;28;20107;-93
2021/08/09 02:08:03;;;;;;;125.10;57.63;;;;;;;18.97;78.19;99829.06;5033205;28;20418;-91
2021/08/09 02:10:32;;;;;;;124.53;57.95;;;;;;;19.13;78.07;99842.09;5000108;28;20041;-90
2021/08/09 02:13:32;;;;;;;106.65;54.75;;;;;;;19.14;77.97;99843.72;5001404;28;20538;-93
2021/08/09 02:16:06;;;;;;;121.80;55.38;;;;;;;19.14;78.00;99855.63;5000216;28;20136;-90
2021/08/09 02:19:02;;;;;;;111.63;52.80;;;;;;;19.13;77.59;99859.53;4999944;28;20099;-90
2021/08/09 02:21:33;;;;;;;126.82;57.97;;;;;;;19.11;78.35;99858.31;4997332;28;20042;-92
2021/08/09 02:24:08;;;;;;;117.25;56.22;;;;;;;19.01;78.05;99848.56;4996536;28;20555;-93
2021/08/09 02:27:11;;;;;;;99.45;51.67;;;;;;;19.04;77.14;99860.88;4980558;28;20044;-94
2021/08/09 02:29:42;;;;;;;102.72;53.75;;;;;;;18.88;76.81;99847.03;4993919;28;20057;-93
2021/08/09 02:32:09;;;;;;;117.05;56.00;;;;;;;18.74;77.31;99839.94;5016208;28;20059;-91
2021/08/09 02:34:37;;;;;;;125.22;55.22;;;;;;;18.92;77.67;99867.31;5026240;28;20069;-91
2021/08/09 02:37:08;;;;;;;111.38;58.10;;;;;;;18.78;77.63;99846.38;5016099;28;20418;-91
2021/08/09 02:39:38;;;;;;;110.65;56.72;;;;;;;18.79;77.48;99849.94;5000041;28;20176;-93
2021/08/09 02:42:06;;;;;;;108.28;56.92;;;;;;;18.90;77.87;99875.97;4999794;28;20135;-92
2021/08/09 02:44:32;;;;;;;;;;;;;;;18.94;78.58;99870.50;4985382;28;20103;-91
2021/08/09 02:47:00;;;;;;;131.52;63.25;;;;;;;18.91;79.10;99858.19;4998448;28;20012;-90
2021/08/09 02:49:28;;;;;;;126.88;62.08;;;;;;;19.00;78.64;99869.09;4988730;28;20049;-94
2021/08/09 02:51:57;;;;;;;124.03;62.90;;;;;;;19.03;78.41;99873.94;4980391;28;20033;-92
2021/08/09 02:54:23;;;;;;;132.15;62.53;;;;;;;18.99;78.60;99857.22;4964086;28;20041;-91
2021/08/09 02:56:51;;;;;;;120.07;60.20;;;;;;;19.02;78.23;99867.59;4979952;28;20033;-90
2021/08/09 02:59:18;;;;;;;138.13;64.85;;;;;;;18.84;77.96;99833.09;4969823;28;20037;-91
2021/08/09 03:01:45;;;;;;;129.02;65.93;;;;;;;18.97;77.94;99861.50;5026263;28;20041;-91
2021/08/09 03:04:15;;;;;;;146.73;70.57;;;;;;;18.81;78.09;99842.09;4999654;28;20041;-94
2021/08/09 03:06:43;;;;;;;133.52;71.75;;;;;;;18.85;78.26;99844.97;4983556;28;20033;-95
2021/08/09 03:09:10;;;;;;;135.80;69.63;;;;;;;19.01;78.07;99871.53;5015877;28;20048;-95
2021/08/09 03:11:41;;;;;;;142.18;74.53;;;;;;;19.06;78.45;99867.66;4983119;28;20517;-92
2021/08/09 03:14:22;;;;;;;141.52;73.70;;;;;;;19.03;78.26;99865.63;4999515;28;20046;-93
2021/08/09 03:16:51;;;;;;;136.10;75.70;;;;;;;19.08;78.10;99878.41;4983412;28;20038;-94
2021/08/09 03:19:18;;;;;;;141.05;80.45;;;;;;;19.10;77.82;99873.31;4983217;28;20110;-96
2021/08/09 03:21:51;;;;;;;;;;;;;;;19.11;78.22;99872.16;4984366;28;20452;-94
2021/08/09 03:24:18;;;;;;;144.50;81.72;;;;;;;18.94;78.55;99853.88;4999860;28;19921;-95
2021/08/09 03:26:44;;;;;;;133.77;75.18;;;;;;;18.99;77.93;99857.22;5015827;28;20391;-92
2021/08/09 03:29:10;;;;;;;128.83;71.90;;;;;;;19.12;78.27;99877.34;5027510;28;20071;-92
2021/08/09 03:31:36;;;;;;;148.17;76.23;;;;;;;19.04;78.47;99849.78;4983060;28;20291;-94
2021/08/09 03:34:04;;;;;;;144.10;79.55;;;;;;;19.28;78.77;99882.88;5011305;28;20041;-94
2021/08/09 03:36:30;;;;;;;;;;;;;;;19.38;78.80;99882.34;4999683;28;20433;-93
2021/08/09 03:38:57;;;;;;;146.10;73.78;;;;;;;19.25;78.96;99844.78;4999099;28;19944;-95
2021/08/09 03:41:23;;;;;;;136.60;76.10;;;;;;;19.54;79.12;99879.56;5004862;28;20046;-93
2021/08/09 03:43:50;;;;;;;166.77;81.32;;;;;;;19.64;80.43;99881.81;4972779;28;20052;-94
2021/08/09 03:46:16;;;;;;;196.83;88.17;;;;;;;19.69;81.65;99875.19;5036156;28;20041;-94
2021/08/09 03:48:42;;;;;;;158.23;80.53;;;;;;;19.64;81.18;99861.59;5019860;28;20331;-94
2021/08/09 03:51:09;;;;;;;166.80;78.63;;;;;;;19.86;81.17;99874.78;5015614;28;20103;-96
2021/08/09 03:53:36;;;;;;;155.02;81.40;;;;;;;19.99;80.58;99880.22;5014168;28;20021;-95
2021/08/09 03:56:02;;;;;;;150.73;81.07;;;;;;;20.08;80.33;99886.38;5056901;28;20041;-91
2021/08/09 03:58:29;;;;;;;165.05;80.88;;;;;;;20.14;80.95;99887.72;5007202;28;20043;-94
2021/08/09 04:00:55;;;;;;;154.25;78.53;;;;;;;20.24;80.93;99889.91;5002000;28;20391;-93
2021/08/09 04:03:21;;;;;;;149.75;77.22;;;;;;;20.18;79.90;99858.84;4987259;28;20041;-94
2021/08/09 04:05:47;;;;;;;186.10;77.68;;;;;;;20.32;79.64;99866.66;4987844;28;20099;-95
2021/08/09 04:08:14;;;;;;;148.02;74.57;;;;;;;20.58;79.11;99882.69;5019629;28;20045;-96
2021/08/09 04:10:42;;;;;;;175.52;76.30;;;;;;;20.63;78.14;99884.38;5019770;28;20098;-92
2021/08/09 04:13:09;;;;;;;155.45;77.95;;;;;;;20.77;78.33;99893.00;5003061;28;20038;-95
2021/08/09 04:15:35;;;;;;;166.35;75.25;;;;;;;20.82;78.20;99894.66;4986845;28;20486;-96
2021/08/09 04:18:03;;;;;;;149.55;75.35;;;;;;;20.85;77.71;99883.59;5019941;28;20045;-95
2021/08/09 04:20:29;;;;;;;178.80;75.45;;;;;;;21.20;77.65;99884.63;4986504;28;20095;-94
2021/08/09 04:22:57;;;;;;;140.45;74.60;;;;;;;21.18;76.80;99876.66;4999594;28;20038;-93
2021/08/09 04:25:25;;;;;;;170.90;72.32;;;;;;;21.23;76.25;99890.25;5007241;28;20056;-92
2021/08/09 04:27:52;;;;;;;139.45;72.28;;;;;;;21.11;76.54;99874.56;5002552;28;20052;-93
2021/08/09 04:30:18;;;;;;;153.10;73.05;;;;;;;21.13;76.41;99871.41;4986492;28;20033;-95
2021/08/09 04:32:48;;;;;;;138.63;73.57;;;;;;;21.15;76.14;99869.06;5002893;28;20132;-95
2021/08/09 04:35:15;;;;;;;155.82;76.40;;;;;;;21.33;76.48;99889.63;5003216;28;20049;-92
2021/08/09 04:37:46;;;;;;;145.75;77.38;;;;;;;21.39;76.16;99881.00;5002856;28;20068;-95
2021/08/09 04:40:14;;;;;;;150.48;79.38;;;;;;;21.40;75.44;99871.50;5019212;28;20084;-95
2021/08/09 04:42:40;;;;;;;143.35;74.45;;;;;;;21.30;74.80;99862.56;4984395;28;20565;-96
2021/08/09 04:45:10;;;;;;;144.43;77.95;;;;;;;21.43;74.53;99867.97;5018740;28;20042;-95
2021/08/09 04:47:37;;;;;;;155.38;79.45;;;;;;;21.30;74.52;99843.09;5019421;28;20146;-93
2021/08/09 04:50:05;;;;;;;173.85;84.63;;;;;;;21.40;74.87;99847.25;5003405;28;20158;-96
2021/08/09 04:52:43;;;;;;;151.10;83.82;;;;;;;21.66;74.05;99879.88;5019037;28;20092;-95
2021/08/09 04:55:14;;;;;;;144.27;80.53;;;;;;;21.49;73.47;99839.47;5002794;28;20049;-96
2021/08/09 04:57:41;;;;;;;166.05;84.07;;;;;;;21.63;73.90;99852.00;5002376;28;20640;-94
2021/08/09 05:02:46;;;;;;;176.75;76.40;;;;;;;21.77;71.57;99836.28;5033976;28;20052;-95
2021/08/09 05:05:14;;;;;;;154.73;78.22;;;;;;;21.85;71.12;99845.53;5003687;28;20419;-94
2021/08/09 05:07:40;;;;;;;140.75;73.88;;;;;;;22.05;70.87;99868.47;4986160;28;20106;-96
2021/08/09 05:10:11;;;;;;;155.32;78.00;;;;;;;22.15;70.65;99873.44;5018776;28;20045;-95
2021/08/09 05:12:37;;;;;;;152.50;80.43;;;;;;;22.22;70.16;99873.53;5019728;28;20033;-93
2021/08/09 05:15:07;;;;;;;172.93;75.82;;;;;;;22.12;70.40;99849.09;4982845;28;20510;-95
2021/08/09 05:17:36;;;;;;;162.98;76.63;;;;;;;22.41;69.58;99875.34;5014919;28;20038;-96
2021/08/09 05:20:05;;;;;;;150.02;80.60;;;;;;;22.30;69.24;99852.13;4999068;28;20049;-96
2021/08/09 05:22:31;;;;;;;184.60;80.45;;;;;;;22.29;69.44;99839.41;5006690;28;20044;-96
2021/08/09 05:24:56;;;;;;;174.57;83.27;;;;;;;22.43;69.07;99850.69;4997272;28;20421;-95
2021/08/09 05:27:23;;;;;;;156.63;80.53;;;;;;;22.61;69.10;99864.03;5002307;28;20045;-96
2021/08/09 05:29:48;;;;;;;194.23;92.32;;;;;;;22.48;68.13;99827.25;4990034;28;20430;-96
2021/08/09 05:32:14;;;;;;;177.98;90.95;;;;;;;22.54;68.83;99825.75;5003289;28;20123;-93
2021/08/09 05:34:42;;;;;;;158.73;89.87;;;;;;;22.91;69.22;99880.69;4999387;28;20072;-93
2021/08/09 05:37:36;;;;;;;204.75;92.65;;;;;;;22.92;69.37;99876.72;5004485;28;20049;-96
2021/08/09 05:40:07;;;;;;;198.27;90.13;;;;;;;23.05;69.50;99878.09;5001866;28;20041;-96
2021/08/09 05:42:34;;;;;;;175.40;86.32;;;;;;;23.10;69.08;99869.34;5002021;28;20034;-94
2021/08/09 05:45:02;;;;;;;160.57;82.03;;;;;;;22.98;68.52;99850.94;5003136;28;20049;-95
2021/08/09 05:47:29;;;;;;;179.98;80.47;;;;;;;22.95;67.63;99837.75;5018153;28;20053;-94
2021/08/09 05:49:56;;;;;;;162.25;74.45;;;;;;;23.08;67.41;99857.81;5018215;28;20041;-96
2021/08/09 05:52:24;;;;;;;;;;;;;;;23.21;67.72;99864.69;5001625;28;20498;-95
2021/08/09 05:55:02;;;;;;;207.57;77.32;;;;;;;23.24;67.41;99871.47;5003636;28;19921;-94
2021/08/09 05:57:30;;;;;;;164.98;80.65;;;;;;;23.26;67.55;99868.31;5002879;28;20042;-96
2021/08/09 05:59:56;;;;;;;186.85;82.47;;;;;;;23.18;68.46;99842.34;5003844;28;20052;-96
2021/08/09 06:02:22;;;;;;;124.80;72.97;;;;;;;23.19;66.85;99841.94;5010036;28;20123;-95
2021/08/09 06:04:49;;;;;;;172.50;78.50;;;;;;;22.99;67.14;99807.13;5020716;28;20041;-95
2021/08/09 06:10:10;;;;;;;153.48;71.20;;;;;;;23.56;66.94;99868.94;5003794;28;20051;-96
2021/08/09 06:12:37;;;;;;;151.65;69.35;;;;;;;23.50;65.68;99833.41;5019530;28;20077;-96
2021/08/09 06:15:05;;;;;;;163.63;66.93;;;;;;;23.61;65.11;99865.81;5007929;28;20076;-94
2021/08/09 06:17:36;;;;;;;188.57;71.28;;;;;;;23.68;65.21;99867.88;5025306;28;20036;-92
2021/08/09 06:20:04;;;;;;;174.63;71.65;;;;;;;23.66;65.77;99853.47;5007481;28;20064;-95
2021/08/09 06:22:31;;;;;;;168.02;57.33;;;;;;;23.77;64.28;99845.97;4986471;28;20053;-95
2021/08/09 06:24:59;;;;;;;112.05;54.88;;;;;;;23.96;63.47;99861.66;5018500;28;20044;-94
2021/08/09 06:27:26;;;;;;;116.60;54.60;;;;;;;24.00;63.42;99859.69;5005670;28;20107;-96
2021/08/09 06:29:54;;;;;;;108.68;48.50;;;;;;;24.03;62.43;99856.09;5017088;28;20516;-94
2021/08/09 06:32:24;;;;;;;103.43;48.63;;;;;;;24.12;62.99;99852.97;5016822;28;20053;-91
2021/08/09 06:34:54;;;;;;;121.47;47.90;;;;;;;24.21;63.20;99856.22;5010782;28;20410;-94
2021/08/09 06:37:23;;;;;;;93.38;48.50;;;;;;;24.02;62.43;99829.38;4984235;28;20045;-94
2021/08/09 06:39:49;;;;;;;179.02;45.05;;;;;;;24.00;61.48;99817.78;5017108;28;20033;-95
2021/08/09 06:42:15;;;;;;;109.65;40.83;;;;;;;24.29;63.19;99859.81;5015985;28;20041;-96
2021/08/09 06:44:44;;;;;;;110.57;44.15;;;;;;;24.17;62.82;99830.22;4999042;28;20037;-93
2021/08/09 06:47:13;;;;;;;102.38;45.55;;;;;;;24.40;61.88;99855.06;4979984;28;20042;-91
2021/08/09 06:49:40;;;;;;;101.53;45.28;;;;;;;24.35;61.89;99841.50;5012067;28;20038;-96
2021/08/09 06:52:06;;;;;;;102.40;47.42;;;;;;;24.43;62.72;99848.72;4979621;28;20411;-91
2021/08/09 06:54:32;;;;;;;95.35;46.75;;;;;;;24.31;61.45;99832.31;4979824;28;20793;-93
2021/08/09 06:57:06;;;;;;;125.05;48.00;;;;;;;24.31;61.94;99827.50;5001676;28;20147;-95
2021/08/09 06:59:33;;;;;;;102.07;43.60;;;;;;;24.35;62.31;99825.53;4980359;28;20041;-91
2021/08/09 07:02:03;;;;;;;102.78;43.42;;;;;;;24.46;62.72;99825.59;4996683;28;20052;-93
2021/08/09 07:04:30;;;;;;;115.18;44.28;;;;;;;24.67;61.78;99849.19;4980999;28;20044;-96
2021/08/09 07:06:57;;;;;;;89.78;44.22;;;;;;;24.58;61.49;99830.03;4987142;28;20049;-94
2021/08/09 07:09:27;;;;;;;90.47;45.85;;;;;;;24.75;60.50;99862.00;5012879;28;20065;-94
2021/08/09 07:11:53;;;;;;;106.80;43.38;;;;;;;24.83;61.53;99860.81;4996015;28;20495;-94
2021/08/09 07:14:21;;;;;;;105.43;43.80;;;;;;;24.74;60.93;99840.84;5011688;28;20038;-94
2021/08/09 07:16:50;;;;;;;83.35;39.95;;;;;;;24.94;60.78;99864.44;4976780;28;20069;-93
2021/08/09 07:19:17;;;;;;;93.32;43.40;;;;;;;24.89;60.06;99853.66;5002718;28;20909;-95
2021/08/09 07:21:44;;;;;;;267.98;50.55;;;;;;;25.00;61.15;99856.44;4996065;28;20042;-95
2021/08/09 07:24:11;;;;;;;112.63;44.63;;;;;;;24.74;60.94;99804.50;4980232;28;20041;-95
2021/08/09 07:26:37;;;;;;;93.18;42.95;;;;;;;24.92;60.59;99824.09;4979574;28;20494;-95
2021/08/09 07:29:07;;;;;;;83.72;45.00;;;;;;;25.07;59.41;99846.09;4977818;28;20041;-92
2021/08/09 07:31:33;;;;;;;155.80;47.33;;;;;;;24.89;60.74;99805.31;4979238;28;20127;-92
2021/08/09 07:34:04;;;;;;;109.43;44.45;;;;;;;24.85;60.98;99799.72;4979608;28;20046;-91
2021/08/09 07:36:30;;;;;;;83.20;42.95;;;;;;;24.85;59.35;99791.31;4994806;28;20049;-93
2021/08/09 07:39:02;;;;;;;91.05;40.25;;;;;;;25.08;59.01;99822.50;4979309;28;20037;-93
2021/08/09 07:41:29;;;;;;;97.47;40.60;;;;;;;25.35;60.28;99847.31;4996382;28;20046;-91
2021/08/09 07:43:55;;;;;;;75.95;39.80;;;;;;;25.28;58.06;99841.72;4971169;28;20044;-94
2021/08/09 07:46:24;;;;;;;90.30;38.22;;;;;;;25.26;58.94;99830.13;4987488;28;20129;-91
2021/08/09 07:48:51;;;;;;;100.15;38.40;;;;;;;25.15;59.59;99807.75;5012020;28;20051;-90
2021/08/09 07:51:18;;;;;;;74.82;35.05;;;;;;;25.50;60.19;99842.53;5005555;28;20124;-92
2021/08/09 07:53:44;;;;;;;227.63;42.55;;;;;;;25.45;59.37;99823.31;5027882;28;20503;-92
2021/08/09 07:56:11;;;;;;;97.75;32.15;;;;;;;25.55;57.33;99823.28;5020429;28;20361;-92
2021/08/09 07:58:39;;;;;;;71.05;32.35;;;;;;;25.64;57.42;99822.09;4991406;28;20088;-92
2021/08/09 08:01:08;;;;;;;67.53;29.60;;;;;;;25.45;56.71;99790.53;5008440;28;20038;-91
2021/08/09 08:03:34;;;;;;;;;;;;;;;25.75;56.43;99834.06;5021051;28;20037;-92
2021/08/09 08:06:01;;;;;;;89.53;28.20;;;;;;;25.52;55.88;99798.91;4989421;28;20349;-91
2021/08/09 08:08:26;;;;;;;93.63;28.25;;;;;;;25.62;56.38;99799.28;5014908;28;20045;-91
2021/08/09 08:10:54;;;;;;;73.50;26.52;;;;;;;25.70;56.51;99803.69;5014552;28;20038;-92
2021/08/09 08:13:20;;;;;;;271.65;37.88;;;;;;;25.81;54.45;99812.88;4999515;28;20056;-90
2021/08/09 08:15:46;;;;;;;57.75;25.35;;;;;;;25.84;53.74;99814.09;4997555;28;20041;-90
2021/08/09 08:18:13;;;;;;;68.47;25.67;;;;;;;25.77;53.90;99803.66;5014851;28;20041;-90
2021/08/09 08:20:39;;;;;;;99.35;26.10;;;;;;;25.75;53.01;99794.84;5004504;28;20034;-91
2021/08/09 08:23:05;;;;;;;56.45;22.92;;;;;;;25.79;52.34;99790.03;5024136;28;20048;-90
2021/08/09 08:25:36;;;;;;;62.17;21.38;;;;;;;25.97;54.72;99813.22;5005886;28;20041;-90
2021/08/09 08:28:02;;;;;;;;;;;;;;;26.25;54.88;99842.34;5009438;28;20129;-88
2021/08/09 08:30:28;;;;;;;63.72;19.88;;;;;;;26.26;52.80;99827.16;4981903;28;19971;-89
2021/08/09 08:32:55;;;;;;;101.05;24.58;;;;;;;26.43;52.70;99833.88;5026858;28;20049;-88
2021/08/09 08:35:21;;;;;;;35.60;15.35;;;;;;;26.39;52.95;99821.84;5015410;28;20210;-89
2021/08/09 08:37:48;;;;;;;34.40;16.65;;;;;;;26.24;52.96;99781.91;5007193;28;20041;-91
2021/08/09 08:40:14;;;;;;;79.97;22.05;;;;;;;26.59;52.76;99830.59;5030469;28;20020;-90
2021/08/09 08:42:47;;;;;;;71.82;19.00;;;;;;;26.53;50.76;99815.44;5024951;28;20030;-91
2021/08/09 08:45:21;;;;;;;145.65;23.95;;;;;;;26.70;50.55;99839.75;5025210;28;20124;-90
2021/08/09 08:47:50;;;;;;;49.15;17.13;;;;;;;26.66;49.10;99841.78;5005626;28;20053;-89
2021/08/09 08:50:21;;;;;;;44.70;17.45;;;;;;;26.44;49.96;99793.41;5013795;28;20044;-91
2021/08/09 08:52:49;;;;;;;79.35;20.85;;;;;;;26.64;51.41;99818.94;5026858;28;20123;-89
2021/08/09 08:55:17;;;;;;;44.28;14.93;;;;;;;26.81;47.23;99845.28;5009629;28;20037;-90
2021/08/09 08:57:46;;;;;;;60.30;18.35;;;;;;;26.66;49.47;99816.56;5010000;28;20029;-89
2021/08/09 09:00:15;;;;;;;40.22;18.10;;;;;;;26.89;48.51;99847.66;5023979;28;20560;-91
2021/08/09 09:02:42;;;;;;;47.78;18.30;;;;;;;26.84;48.26;99839.66;5009535;28;20053;-90
2021/08/09 09:05:18;;;;;;;98.13;20.67;;;;;;;26.87;48.50;99838.84;5008992;28;20069;-90
2021/08/09 09:07:48;;;;;;;;;;;;;;;26.85;46.65;99838.44;5029950;28;20041;-89
2021/08/09 09:10:26;;;;;;;48.72;17.10;;;;;;;26.49;48.40;99773.41;5002136;28;19928;-91
2021/08/09 09:13:06;;;;;;;107.80;19.70;;;;;;;26.72;50.06;99795.25;4981563;28;20073;-90
2021/08/09 09:15:58;;;;;;;50.05;20.35;;;;;;;26.69;49.51;99782.06;4999995;28;20211;-91
2021/08/09 09:18:28;;;;;;;46.53;18.92;;;;;;;26.83;48.88;99792.38;5009931;28;20046;-89
2021/08/09 09:20:55;;;;;;;52.70;19.10;;;;;;;26.85;48.04;99789.94;4998120;28;20042;-90
2021/08/09 09:23:24;;;;;;;46.55;19.35;;;;;;;26.87;48.90;99784.75;4990205;28;20120;-90
2021/08/09 09:25:51;;;;;;;65.57;18.00;;;;;;;27.16;46.67;99833.06;4994427;28;20445;-89
2021/08/09 09:28:44;;;;;;;45.25;17.42;;;;;;;27.18;45.75;99833.41;4986914;28;20034;-89
2021/08/09 09:31:24;;;;;;;43.13;16.33;;;;;;;27.13;45.18;99820.63;4897556;29;20466;-90
2021/08/09 09:33:51;;;;;;;33.38;15.75;;;;;;;27.17;45.53;99818.59;4866985;29;20043;-86
2021/08/09 09:36:21;;;;;;;78.78;18.63;;;;;;;27.30;47.21;99829.31;4912515;29;20566;-86
2021/08/09 09:38:50;;;;;;;41.17;19.30;;;;;;;27.26;46.69;99806.91;4912827;29;20072;-86
2021/08/09 09:41:16;;;;;;;53.05;16.38;;;;;;;27.30;45.44;99806.88;4912558;29;20102;-85
2021/08/09 09:43:46;;;;;;;36.63;14.63;;;;;;;27.38;44.55;99809.19;4913178;29;20039;-87
2021/08/09 09:46:23;;;;;;;46.30;16.25;;;;;;;27.34;46.43;99791.56;4898768;29;20047;-88
2021/08/09 09:48:49;;;;;;;29.98;13.95;;;;;;;27.44;43.51;99795.50;4923146;29;20124;-91
2021/08/09 09:51:17;;;;;;;;;;;;;;;27.63;43.11;99814.56;4923925;29;20067;-89
2021/08/09 09:53:46;;;;;;;28.90;13.60;;;;;;;27.68;42.04;99818.91;4915046;29;19958;-87
2021/08/09 09:56:12;;;;;;;38.90;15.35;;;;;;;27.71;42.25;99812.47;4898984;29;20091;-86
2021/08/09 09:58:39;;;;;;;37.33;14.95;;;;;;;27.78;43.76;99815.25;4914567;29;20589;-89
2021/08/09 10:01:08;;;;;;;34.92;16.73;;;;;;;27.84;44.27;99807.94;4914757;29;20092;-84
2021/08/09 10:03:39;;;;;;;42.95;17.23;;;;;;;27.82;45.99;99801.16;4898556;29;20597;-86
2021/08/09 10:06:06;;;;;;;33.65;16.30;;;;;;;27.89;45.32;99794.66;4871111;29;20035;-85
2021/08/09 10:08:39;;;;;;;36.63;16.48;;;;;;;28.04;44.95;99813.72;4984959;28;20140;-86
2021/08/09 10:11:08;;;;;;;35.80;16.48;;;;;;;28.01;42.52;99805.34;5021476;28;20376;-92
2021/08/09 10:13:37;;;;;;;37.80;15.70;;;;;;;28.09;43.18;99810.47;5003726;28;20044;-86
2021/08/09 10:16:07;;;;;;;34.42;16.52;;;;;;;28.24;44.47;99813.09;5027708;28;20124;-86
2021/08/09 10:18:36;;;;;;;36.05;16.70;;;;;;;28.23;45.06;99797.44;4976328;28;20072;-84
2021/08/09 10:21:04;;;;;;;35.72;17.55;;;;;;;28.30;44.26;99800.94;4995900;28;20088;-84
2021/08/09 10:23:48;;;;;;;44.67;17.40;;;;;;;28.39;43.84;99802.47;5029409;28;20041;-85
2021/08/09 10:26:35;;;;;;;36.93;17.93;;;;;;;28.54;45.52;99823.56;4994967;28;20384;-87
2021/08/09 10:29:03;;;;;;;50.08;18.45;;;;;;;28.59;44.43;99820.28;5027190;28;20835;-90
2021/08/09 10:31:31;;;;;;;36.65;16.58;;;;;;;28.63;42.41;99812.59;5030547;28;20041;-91
2021/08/09 10:33:59;;;;;;;39.75;18.13;;;;;;;28.56;44.52;99787.38;5030136;28;20071;-91
2021/08/09 10:36:26;;;;;;;42.33;18.85;;;;;;;28.66;46.94;99789.22;5031158;28;20651;-89
2021/08/09 10:38:54;;;;;;;43.65;18.88;;;;;;;28.65;44.01;99775.59;5010778;28;20517;-92
2021/08/09 10:41:53;;;;;;;44.72;19.23;;;;;;;28.96;46.01;99812.91;4988616;28;20042;-90
2021/08/09 10:44:26;;;;;;;44.78;20.42;;;;;;;29.00;45.73;99803.19;4994375;28;20040;-91
2021/08/09 10:46:55;;;;;;;39.70;18.90;;;;;;;28.96;44.55;99781.94;4994445;28;20044;-93
2021/08/09 10:49:38;;;;;;;44.92;19.15;;;;;;;29.09;43.61;99808.28;4982680;28;20056;-93
2021/08/09 10:52:46;;;;;;;41.65;19.30;;;;;;;29.15;43.02;99806.59;4963978;28;20488;-93
2021/08/09 10:55:32;;;;;;;47.42;20.30;;;;;;;29.22;43.81;99800.81;4948455;28;20046;-91
2021/08/09 10:58:00;;;;;;;49.63;21.45;;;;;;;29.19;42.58;99787.59;4951090;28;20053;-93
2021/08/09 11:00:40;;;;;;;48.45;20.35;;;;;;;29.38;44.46;99802.19;4931771;28;20041;-93
2021/08/09 11:03:18;;;;;;;41.35;19.90;;;;;;;29.31;43.13;99774.94;4934442;28;20435;-87
2021/08/09 11:05:45;;;;;;;39.67;19.50;;;;;;;29.53;43.33;99792.22;4955707;28;20500;-87
2021/08/09 11:08:20;;;;;;;41.13;19.13;;;;;;;29.61;43.36;99785.28;4982063;28;20108;-87
2021/08/09 11:10:54;;;;;;;41.42;19.27;;;;;;;29.66;41.95;99789.59;4975399;28;20046;-84
2021/08/09 11:13:21;;;;;;;40.05;18.77;;;;;;;29.66;43.56;99779.13;4969538;28;20047;-85
2021/08/09 11:15:55;;;;;;;41.15;19.52;;;;;;;29.76;41.97;99787.81;4952895;28;20041;-91
2021/08/09 11:18:21;;;;;;;45.47;18.90;;;;;;;29.76;41.40;99780.16;4938727;28;20679;-90
2021/08/09 11:20:47;;;;;;;52.58;18.95;;;;;;;29.89;41.24;99792.38;4958763;28;20065;-89
2021/08/09 11:23:15;;;;;;;50.50;19.10;;;;;;;29.87;39.48;99788.41;4970803;28;20045;-84
2021/08/09 11:25:44;;;;;;;48.20;18.67;;;;;;;29.96;40.89;99786.56;5023425;28;20041;-92
2021/08/09 11:28:19;;;;;;;49.40;18.88;;;;;;;29.86;39.01;99765.03;5019594;28;20048;-88
2021/08/09 11:30:51;;;;;;;40.15;19.80;;;;;;;30.02;41.33;99780.44;5013640;28;20034;-89
2021/08/09 11:33:21;;;;;;;37.70;19.42;;;;;;;30.07;42.12;99771.50;4980730;28;20038;-86